sensor_id;sensor_type;location;lat;lon;timestamp;P1;durP1;ratioP1;P2;durP2;ratioP2
70297;SDS011;57702;44.420;20.298;2022-11-09T00:00:38;11.20;;;6.38;;
70297;SDS011;57702;44.420;20.298;2022-11-09T00:03:05;23.13;;;7.80;;
70297;SDS011;57702;44.420;20.298;2022-11-09T00:05:31;12.88;;;8.10;;
70297;SDS011;57702;44.420;20.298;2022-11-09T00:07:57;16.17;;;9.98;;
70297;SDS011;57702;44.420;20.298;2022-11-09T00:10:23;12.40;;;9.32;;
70297;SDS011;57702;44.420;20.298;2022-11-09T00:12:49;22.30;;;10.43;;
70297;SDS011;57702;44.420;20.298;2022-11-09T00:15:15;21.90;;;8.30;;
70297;SDS011;57702;44.420;20.298;2022-11-09T00:17:42;12.55;;;8.00;;
70297;SDS011;57702;44.420;20.298;2022-11-09T00:20:08;21.92;;;8.63;;
70297;SDS011;57702;44.420;20.298;2022-11-09T00:22:34;17.52;;;8.32;;
70297;SDS011;57702;44.420;20.298;2022-11-09T00:25:00;12.60;;;7.25;;
70297;SDS011;57702;44.420;20.298;2022-11-09T00:27:26;6.80;;;5.45;;
70297;SDS011;57702;44.420;20.298;2022-11-09T00:29:52;14.63;;;7.75;;
70297;SDS011;57702;44.420;20.298;2022-11-09T00:32:18;12.20;;;6.63;;
70297;SDS011;57702;44.420;20.298;2022-11-09T00:34:44;10.15;;;8.13;;
70297;SDS011;57702;44.420;20.298;2022-11-09T00:37:10;15.45;;;8.80;;
70297;SDS011;57702;44.420;20.298;2022-11-09T00:39:36;13.13;;;6.45;;
70297;SDS011;57702;44.420;20.298;2022-11-09T00:42:02;13.77;;;8.13;;
70297;SDS011;57702;44.420;20.298;2022-11-09T00:44:29;16.33;;;6.63;;
70297;SDS011;57702;44.420;20.298;2022-11-09T00:46:55;23.58;;;6.88;;
70297;SDS011;57702;44.420;20.298;2022-11-09T00:49:21;13.05;;;6.53;;
70297;SDS011;57702;44.420;20.298;2022-11-09T00:51:47;11.48;;;7.95;;
70297;SDS011;57702;44.420;20.298;2022-11-09T00:54:13;11.68;;;7.53;;
70297;SDS011;57702;44.420;20.298;2022-11-09T00:56:39;17.20;;;5.93;;
70297;SDS011;57702;44.420;20.298;2022-11-09T00:59:05;12.70;;;5.65;;
70297;SDS011;57702;44.420;20.298;2022-11-09T01:01:31;6.95;;;3.80;;
70297;SDS011;57702;44.420;20.298;2022-11-09T01:03:58;7.45;;;4.13;;
70297;SDS011;57702;44.420;20.298;2022-11-09T01:06:24;10.35;;;4.45;;
70297;SDS011;57702;44.420;20.298;2022-11-09T01:08:50;6.70;;;4.65;;
70297;SDS011;57702;44.420;20.298;2022-11-09T01:11:17;6.32;;;3.45;;
70297;SDS011;57702;44.420;20.298;2022-11-09T01:13:43;17.20;;;6.25;;
70297;SDS011;57702;44.420;20.298;2022-11-09T01:16:11;6.05;;;3.92;;
70297;SDS011;57702;44.420;20.298;2022-11-09T01:18:38;18.98;;;5.95;;
70297;SDS011;57702;44.420;20.298;2022-11-09T01:21:05;9.57;;;6.50;;
70297;SDS011;57702;44.420;20.298;2022-11-09T01:23:32;17.38;;;5.75;;
70297;SDS011;57702;44.420;20.298;2022-11-09T01:26:03;18.00;;;7.78;;
70297;SDS011;57702;44.420;20.298;2022-11-09T01:28:30;11.35;;;4.97;;
70297;SDS011;57702;44.420;20.298;2022-11-09T01:30:59;23.48;;;7.20;;
70297;SDS011;57702;44.420;20.298;2022-11-09T01:33:26;13.98;;;5.97;;
70297;SDS011;57702;44.420;20.298;2022-11-09T01:35:52;9.63;;;5.63;;
70297;SDS011;57702;44.420;20.298;2022-11-09T01:38:18;22.02;;;7.45;;
70297;SDS011;57702;44.420;20.298;2022-11-09T01:40:44;20.75;;;6.57;;
70297;SDS011;57702;44.420;20.298;2022-11-09T01:45:39;18.27;;;6.25;;
70297;SDS011;57702;44.420;20.298;2022-11-09T01:48:09;15.07;;;6.80;;
70297;SDS011;57702;44.420;20.298;2022-11-09T01:53:13;9.13;;;5.57;;
70297;SDS011;57702;44.420;20.298;2022-11-09T01:55:40;14.95;;;5.72;;
70297;SDS011;57702;44.420;20.298;2022-11-09T01:58:11;15.63;;;7.25;;
70297;SDS011;57702;44.420;20.298;2022-11-09T02:00:40;20.35;;;7.15;;
70297;SDS011;57702;44.420;20.298;2022-11-09T02:03:08;27.95;;;8.52;;
70297;SDS011;57702;44.420;20.298;2022-11-09T02:05:36;13.90;;;6.88;;
70297;SDS011;57702;44.420;20.298;2022-11-09T02:08:04;23.75;;;6.38;;
70297;SDS011;57702;44.420;20.298;2022-11-09T02:13:17;16.73;;;8.50;;
70297;SDS011;57702;44.420;20.298;2022-11-09T02:15:44;17.38;;;6.90;;
70297;SDS011;57702;44.420;20.298;2022-11-09T02:18:10;16.77;;;7.78;;
70297;SDS011;57702;44.420;20.298;2022-11-09T02:20:43;33.67;;;8.30;;
70297;SDS011;57702;44.420;20.298;2022-11-09T02:23:09;30.27;;;10.38;;
70297;SDS011;57702;44.420;20.298;2022-11-09T02:25:35;51.25;;;10.75;;
70297;SDS011;57702;44.420;20.298;2022-11-09T02:28:01;21.30;;;7.28;;
70297;SDS011;57702;44.420;20.298;2022-11-09T02:30:28;33.08;;;8.30;;
70297;SDS011;57702;44.420;20.298;2022-11-09T02:32:54;24.05;;;8.68;;
70297;SDS011;57702;44.420;20.298;2022-11-09T02:35:20;17.73;;;7.20;;
70297;SDS011;57702;44.420;20.298;2022-11-09T02:37:47;12.95;;;5.80;;
70297;SDS011;57702;44.420;20.298;2022-11-09T02:40:19;8.77;;;5.60;;
70297;SDS011;57702;44.420;20.298;2022-11-09T02:42:46;23.60;;;6.63;;
70297;SDS011;57702;44.420;20.298;2022-11-09T02:45:12;23.45;;;7.57;;
70297;SDS011;57702;44.420;20.298;2022-11-09T02:47:38;16.27;;;5.95;;
70297;SDS011;57702;44.420;20.298;2022-11-09T02:50:04;35.00;;;10.40;;
70297;SDS011;57702;44.420;20.298;2022-11-09T02:52:30;12.05;;;6.60;;
70297;SDS011;57702;44.420;20.298;2022-11-09T02:54:56;18.27;;;6.78;;
70297;SDS011;57702;44.420;20.298;2022-11-09T02:57:22;9.18;;;5.93;;
70297;SDS011;57702;44.420;20.298;2022-11-09T02:59:48;14.02;;;6.43;;
70297;SDS011;57702;44.420;20.298;2022-11-09T03:02:14;19.58;;;5.05;;
70297;SDS011;57702;44.420;20.298;2022-11-09T03:04:40;16.95;;;5.32;;
70297;SDS011;57702;44.420;20.298;2022-11-09T03:07:06;6.38;;;4.82;;
70297;SDS011;57702;44.420;20.298;2022-11-09T03:09:33;9.82;;;7.30;;
70297;SDS011;57702;44.420;20.298;2022-11-09T03:11:59;8.95;;;5.82;;
70297;SDS011;57702;44.420;20.298;2022-11-09T03:14:45;16.67;;;5.85;;
70297;SDS011;57702;44.420;20.298;2022-11-09T03:17:11;10.40;;;5.82;;
70297;SDS011;57702;44.420;20.298;2022-11-09T03:19:38;10.32;;;4.95;;
70297;SDS011;57702;44.420;20.298;2022-11-09T03:22:04;10.48;;;4.93;;
70297;SDS011;57702;44.420;20.298;2022-11-09T03:24:30;14.05;;;4.90;;
70297;SDS011;57702;44.420;20.298;2022-11-09T03:26:56;7.57;;;4.38;;
70297;SDS011;57702;44.420;20.298;2022-11-09T03:29:22;5.43;;;3.80;;
70297;SDS011;57702;44.420;20.298;2022-11-09T03:31:48;10.25;;;4.07;;
70297;SDS011;57702;44.420;20.298;2022-11-09T03:34:14;4.30;;;3.90;;
70297;SDS011;57702;44.420;20.298;2022-11-09T03:36:40;19.95;;;4.78;;
70297;SDS011;57702;44.420;20.298;2022-11-09T03:39:06;14.52;;;4.25;;
70297;SDS011;57702;44.420;20.298;2022-11-09T03:41:32;13.68;;;4.93;;
70297;SDS011;57702;44.420;20.298;2022-11-09T03:43:59;9.05;;;6.30;;
70297;SDS011;57702;44.420;20.298;2022-11-09T03:46:25;22.02;;;5.35;;
70297;SDS011;57702;44.420;20.298;2022-11-09T03:48:51;5.05;;;4.10;;
70297;SDS011;57702;44.420;20.298;2022-11-09T03:51:17;11.90;;;5.10;;
70297;SDS011;57702;44.420;20.298;2022-11-09T03:53:44;14.68;;;4.18;;
70297;SDS011;57702;44.420;20.298;2022-11-09T03:56:10;13.63;;;5.85;;
70297;SDS011;57702;44.420;20.298;2022-11-09T03:58:36;13.55;;;6.68;;
70297;SDS011;57702;44.420;20.298;2022-11-09T04:01:02;9.73;;;4.07;;
70297;SDS011;57702;44.420;20.298;2022-11-09T04:03:28;13.43;;;6.25;;
70297;SDS011;57702;44.420;20.298;2022-11-09T04:05:56;3.45;;;2.95;;
70297;SDS011;57702;44.420;20.298;2022-11-09T04:08:22;4.72;;;4.22;;
70297;SDS011;57702;44.420;20.298;2022-11-09T04:10:48;4.65;;;2.55;;
70297;SDS011;57702;44.420;20.298;2022-11-09T04:13:14;10.63;;;4.20;;
70297;SDS011;57702;44.420;20.298;2022-11-09T04:15:41;4.90;;;3.47;;
70297;SDS011;57702;44.420;20.298;2022-11-09T04:18:08;5.35;;;4.70;;
70297;SDS011;57702;44.420;20.298;2022-11-09T04:20:35;4.20;;;3.30;;
70297;SDS011;57702;44.420;20.298;2022-11-09T04:23:02;18.33;;;5.00;;
70297;SDS011;57702;44.420;20.298;2022-11-09T04:25:32;2.60;;;2.38;;
70297;SDS011;57702;44.420;20.298;2022-11-09T04:27:59;8.50;;;4.03;;
70297;SDS011;57702;44.420;20.298;2022-11-09T04:30:27;31.02;;;7.82;;
70297;SDS011;57702;44.420;20.298;2022-11-09T04:32:56;13.95;;;5.97;;
70297;SDS011;57702;44.420;20.298;2022-11-09T04:35:23;11.18;;;5.55;;
70297;SDS011;57702;44.420;20.298;2022-11-09T04:37:53;12.60;;;4.25;;
70297;SDS011;57702;44.420;20.298;2022-11-09T04:40:20;8.02;;;4.85;;
70297;SDS011;57702;44.420;20.298;2022-11-09T04:42:46;14.13;;;3.20;;
70297;SDS011;57702;44.420;20.298;2022-11-09T04:45:12;10.95;;;4.60;;
70297;SDS011;57702;44.420;20.298;2022-11-09T04:47:38;8.32;;;3.75;;
70297;SDS011;57702;44.420;20.298;2022-11-09T04:50:05;9.02;;;4.22;;
70297;SDS011;57702;44.420;20.298;2022-11-09T04:52:31;6.22;;;2.60;;
70297;SDS011;57702;44.420;20.298;2022-11-09T04:54:57;10.00;;;4.40;;
70297;SDS011;57702;44.420;20.298;2022-11-09T04:57:23;10.85;;;4.15;;
70297;SDS011;57702;44.420;20.298;2022-11-09T04:59:49;6.00;;;4.85;;
70297;SDS011;57702;44.420;20.298;2022-11-09T05:02:15;10.52;;;3.70;;
70297;SDS011;57702;44.420;20.298;2022-11-09T05:04:41;4.43;;;3.20;;
70297;SDS011;57702;44.420;20.298;2022-11-09T05:07:07;6.18;;;3.45;;
70297;SDS011;57702;44.420;20.298;2022-11-09T05:09:33;8.82;;;3.13;;
70297;SDS011;57702;44.420;20.298;2022-11-09T05:11:59;3.65;;;2.72;;
70297;SDS011;57702;44.420;20.298;2022-11-09T05:14:25;7.60;;;3.63;;
70297;SDS011;57702;44.420;20.298;2022-11-09T05:16:51;10.20;;;3.95;;
70297;SDS011;57702;44.420;20.298;2022-11-09T05:19:17;9.90;;;4.60;;
70297;SDS011;57702;44.420;20.298;2022-11-09T05:21:43;40.70;;;5.55;;
70297;SDS011;57702;44.420;20.298;2022-11-09T05:24:10;7.40;;;4.72;;
70297;SDS011;57702;44.420;20.298;2022-11-09T05:26:37;18.65;;;6.75;;
70297;SDS011;57702;44.420;20.298;2022-11-09T05:29:04;10.32;;;5.05;;
70297;SDS011;57702;44.420;20.298;2022-11-09T05:31:31;17.70;;;7.10;;
70297;SDS011;57702;44.420;20.298;2022-11-09T05:33:57;5.18;;;3.72;;
70297;SDS011;57702;44.420;20.298;2022-11-09T05:36:23;7.47;;;3.65;;
70297;SDS011;57702;44.420;20.298;2022-11-09T05:38:50;14.43;;;4.00;;
70297;SDS011;57702;44.420;20.298;2022-11-09T05:41:16;11.90;;;7.25;;
70297;SDS011;57702;44.420;20.298;2022-11-09T05:43:43;24.08;;;10.52;;
70297;SDS011;57702;44.420;20.298;2022-11-09T05:46:10;11.82;;;6.75;;
70297;SDS011;57702;44.420;20.298;2022-11-09T05:48:36;14.02;;;8.20;;
70297;SDS011;57702;44.420;20.298;2022-11-09T05:51:03;16.77;;;8.15;;
70297;SDS011;57702;44.420;20.298;2022-11-09T05:53:29;29.05;;;4.85;;
70297;SDS011;57702;44.420;20.298;2022-11-09T05:55:59;10.10;;;6.45;;
70297;SDS011;57702;44.420;20.298;2022-11-09T05:58:26;7.80;;;4.90;;
70297;SDS011;57702;44.420;20.298;2022-11-09T06:00:52;13.13;;;5.13;;
70297;SDS011;57702;44.420;20.298;2022-11-09T06:03:18;10.70;;;5.55;;
70297;SDS011;57702;44.420;20.298;2022-11-09T06:05:45;3.78;;;3.47;;
70297;SDS011;57702;44.420;20.298;2022-11-09T06:08:12;8.98;;;4.53;;
70297;SDS011;57702;44.420;20.298;2022-11-09T06:10:39;13.13;;;7.47;;
70297;SDS011;57702;44.420;20.298;2022-11-09T06:13:07;10.07;;;7.10;;
70297;SDS011;57702;44.420;20.298;2022-11-09T06:15:33;8.93;;;4.15;;
70297;SDS011;57702;44.420;20.298;2022-11-09T06:17:59;11.35;;;5.82;;
70297;SDS011;57702;44.420;20.298;2022-11-09T06:20:26;7.50;;;4.03;;
70297;SDS011;57702;44.420;20.298;2022-11-09T06:22:52;12.57;;;5.25;;
70297;SDS011;57702;44.420;20.298;2022-11-09T06:25:19;28.27;;;6.07;;
70297;SDS011;57702;44.420;20.298;2022-11-09T06:27:45;11.07;;;5.13;;
70297;SDS011;57702;44.420;20.298;2022-11-09T06:30:11;6.90;;;4.82;;
70297;SDS011;57702;44.420;20.298;2022-11-09T06:32:37;14.90;;;6.15;;
70297;SDS011;57702;44.420;20.298;2022-11-09T06:35:04;24.17;;;7.05;;
70297;SDS011;57702;44.420;20.298;2022-11-09T06:37:30;9.68;;;4.30;;
70297;SDS011;57702;44.420;20.298;2022-11-09T06:39:56;9.48;;;4.13;;
70297;SDS011;57702;44.420;20.298;2022-11-09T06:42:22;16.25;;;4.25;;
70297;SDS011;57702;44.420;20.298;2022-11-09T06:44:48;19.52;;;8.40;;
70297;SDS011;57702;44.420;20.298;2022-11-09T06:47:14;12.98;;;5.28;;
70297;SDS011;57702;44.420;20.298;2022-11-09T06:49:41;7.63;;;4.22;;
70297;SDS011;57702;44.420;20.298;2022-11-09T06:52:07;17.88;;;6.85;;
70297;SDS011;57702;44.420;20.298;2022-11-09T06:54:33;13.38;;;7.57;;
70297;SDS011;57702;44.420;20.298;2022-11-09T06:56:59;9.95;;;5.63;;
70297;SDS011;57702;44.420;20.298;2022-11-09T06:59:25;5.18;;;4.28;;
70297;SDS011;57702;44.420;20.298;2022-11-09T07:01:52;9.00;;;5.00;;
70297;SDS011;57702;44.420;20.298;2022-11-09T07:04:18;9.60;;;6.10;;
70297;SDS011;57702;44.420;20.298;2022-11-09T07:06:44;20.63;;;4.40;;
70297;SDS011;57702;44.420;20.298;2022-11-09T07:09:10;13.10;;;5.85;;
70297;SDS011;57702;44.420;20.298;2022-11-09T07:11:36;14.75;;;6.70;;
70297;SDS011;57702;44.420;20.298;2022-11-09T07:14:02;9.35;;;6.25;;
70297;SDS011;57702;44.420;20.298;2022-11-09T07:16:29;10.95;;;5.00;;
70297;SDS011;57702;44.420;20.298;2022-11-09T07:18:56;22.13;;;4.95;;
70297;SDS011;57702;44.420;20.298;2022-11-09T07:21:22;16.42;;;6.35;;
70297;SDS011;57702;44.420;20.298;2022-11-09T07:23:49;21.75;;;6.35;;
70297;SDS011;57702;44.420;20.298;2022-11-09T07:26:15;20.65;;;5.45;;
70297;SDS011;57702;44.420;20.298;2022-11-09T07:28:41;5.30;;;3.83;;
70297;SDS011;57702;44.420;20.298;2022-11-09T07:31:08;9.23;;;4.00;;
70297;SDS011;57702;44.420;20.298;2022-11-09T07:33:34;13.30;;;4.63;;
70297;SDS011;57702;44.420;20.298;2022-11-09T07:36:03;17.40;;;6.05;;
70297;SDS011;57702;44.420;20.298;2022-11-09T07:38:30;9.65;;;4.68;;
70297;SDS011;57702;44.420;20.298;2022-11-09T07:40:57;8.18;;;4.57;;
70297;SDS011;57702;44.420;20.298;2022-11-09T07:43:24;24.35;;;8.05;;
70297;SDS011;57702;44.420;20.298;2022-11-09T07:45:50;10.63;;;5.93;;
70297;SDS011;57702;44.420;20.298;2022-11-09T07:48:16;30.20;;;7.57;;
70297;SDS011;57702;44.420;20.298;2022-11-09T07:50:43;33.22;;;11.65;;
70297;SDS011;57702;44.420;20.298;2022-11-09T07:53:10;9.85;;;5.68;;
70297;SDS011;57702;44.420;20.298;2022-11-09T07:55:37;19.65;;;6.30;;
70297;SDS011;57702;44.420;20.298;2022-11-09T07:58:04;11.52;;;5.35;;
70297;SDS011;57702;44.420;20.298;2022-11-09T08:00:31;16.17;;;7.95;;
70297;SDS011;57702;44.420;20.298;2022-11-09T08:02:58;9.27;;;5.45;;
70297;SDS011;57702;44.420;20.298;2022-11-09T08:05:26;11.10;;;7.57;;
70297;SDS011;57702;44.420;20.298;2022-11-09T08:08:03;8.48;;;5.22;;
70297;SDS011;57702;44.420;20.298;2022-11-09T08:10:29;17.42;;;6.18;;
70297;SDS011;57702;44.420;20.298;2022-11-09T08:12:56;41.22;;;10.40;;
70297;SDS011;57702;44.420;20.298;2022-11-09T08:15:23;17.13;;;8.50;;
70297;SDS011;57702;44.420;20.298;2022-11-09T08:17:49;11.23;;;6.65;;
70297;SDS011;57702;44.420;20.298;2022-11-09T08:20:15;34.60;;;8.65;;
70297;SDS011;57702;44.420;20.298;2022-11-09T08:22:42;41.38;;;13.50;;
70297;SDS011;57702;44.420;20.298;2022-11-09T08:25:09;50.22;;;13.02;;
70297;SDS011;57702;44.420;20.298;2022-11-09T08:27:35;41.88;;;13.75;;
70297;SDS011;57702;44.420;20.298;2022-11-09T08:30:09;53.13;;;14.27;;
70297;SDS011;57702;44.420;20.298;2022-11-09T08:32:36;48.75;;;14.75;;
70297;SDS011;57702;44.420;20.298;2022-11-09T08:35:03;56.78;;;13.18;;
70297;SDS011;57702;44.420;20.298;2022-11-09T08:37:29;45.63;;;13.43;;
70297;SDS011;57702;44.420;20.298;2022-11-09T08:39:56;50.13;;;17.83;;
70297;SDS011;57702;44.420;20.298;2022-11-09T08:42:22;52.75;;;15.65;;
70297;SDS011;57702;44.420;20.298;2022-11-09T08:44:48;57.30;;;20.42;;
70297;SDS011;57702;44.420;20.298;2022-11-09T08:47:15;44.22;;;11.52;;
70297;SDS011;57702;44.420;20.298;2022-11-09T08:49:41;20.88;;;9.13;;
70297;SDS011;57702;44.420;20.298;2022-11-09T08:52:08;25.58;;;9.77;;
70297;SDS011;57702;44.420;20.298;2022-11-09T08:54:35;22.70;;;8.77;;
70297;SDS011;57702;44.420;20.298;2022-11-09T08:57:01;22.42;;;8.85;;
70297;SDS011;57702;44.420;20.298;2022-11-09T08:59:28;10.60;;;6.90;;
70297;SDS011;57702;44.420;20.298;2022-11-09T09:01:55;15.35;;;5.53;;
70297;SDS011;57702;44.420;20.298;2022-11-09T09:04:21;11.40;;;6.03;;
70297;SDS011;57702;44.420;20.298;2022-11-09T09:06:47;16.33;;;9.13;;
70297;SDS011;57702;44.420;20.298;2022-11-09T09:09:16;10.98;;;7.43;;
70297;SDS011;57702;44.420;20.298;2022-11-09T09:11:42;9.90;;;5.63;;
70297;SDS011;57702;44.420;20.298;2022-11-09T09:14:09;11.20;;;5.85;;
70297;SDS011;57702;44.420;20.298;2022-11-09T09:16:36;30.15;;;7.60;;
70297;SDS011;57702;44.420;20.298;2022-11-09T09:19:02;26.52;;;10.77;;
70297;SDS011;57702;44.420;20.298;2022-11-09T09:21:29;21.95;;;11.30;;
70297;SDS011;57702;44.420;20.298;2022-11-09T09:23:58;39.83;;;13.38;;
70297;SDS011;57702;44.420;20.298;2022-11-09T09:26:35;34.28;;;13.10;;
70297;SDS011;57702;44.420;20.298;2022-11-09T09:29:10;22.83;;;9.75;;
70297;SDS011;57702;44.420;20.298;2022-11-09T09:31:38;21.58;;;10.63;;
70297;SDS011;57702;44.420;20.298;2022-11-09T09:36:53;14.73;;;8.25;;
70297;SDS011;57702;44.420;20.298;2022-11-09T09:39:19;9.43;;;6.60;;
70297;SDS011;57702;44.420;20.298;2022-11-09T09:44:37;14.63;;;9.43;;
70297;SDS011;57702;44.420;20.298;2022-11-09T09:49:51;17.45;;;9.20;;
70297;SDS011;57702;44.420;20.298;2022-11-09T09:52:20;20.65;;;9.30;;
70297;SDS011;57702;44.420;20.298;2022-11-09T09:54:51;25.92;;;9.57;;
70297;SDS011;57702;44.420;20.298;2022-11-09T09:57:23;23.63;;;8.00;;
70297;SDS011;57702;44.420;20.298;2022-11-09T09:59:56;16.95;;;8.45;;
70297;SDS011;57702;44.420;20.298;2022-11-09T10:02:26;25.08;;;10.40;;
70297;SDS011;57702;44.420;20.298;2022-11-09T10:05:02;16.85;;;8.02;;
70297;SDS011;57702;44.420;20.298;2022-11-09T10:07:47;10.45;;;6.13;;
70297;SDS011;57702;44.420;20.298;2022-11-09T10:10:31;9.35;;;5.82;;
70297;SDS011;57702;44.420;20.298;2022-11-09T10:26:31;9.43;;;4.65;;
70297;SDS011;57702;44.420;20.298;2022-11-09T10:31:57;9.27;;;5.03;;
70297;SDS011;57702;44.420;20.298;2022-11-09T10:37:36;8.20;;;3.08;;
70297;SDS011;57702;44.420;20.298;2022-11-09T10:43:22;4.18;;;2.72;;
70297;SDS011;57702;44.420;20.298;2022-11-09T10:46:00;11.15;;;3.97;;
70297;SDS011;57702;44.420;20.298;2022-11-09T10:48:35;6.93;;;4.47;;
70297;SDS011;57702;44.420;20.298;2022-11-09T10:51:04;13.15;;;3.33;;
70297;SDS011;57702;44.420;20.298;2022-11-09T10:53:32;3.78;;;3.45;;
70297;SDS011;57702;44.420;20.298;2022-11-09T11:01:35;4.03;;;2.58;;
70297;SDS011;57702;44.420;20.298;2022-11-09T11:04:22;3.35;;;2.97;;
70297;SDS011;57702;44.420;20.298;2022-11-09T11:06:49;4.03;;;3.10;;
70297;SDS011;57702;44.420;20.298;2022-11-09T11:09:17;3.08;;;2.58;;
70297;SDS011;57702;44.420;20.298;2022-11-09T11:11:45;4.40;;;2.55;;
70297;SDS011;57702;44.420;20.298;2022-11-09T11:14:13;10.18;;;3.67;;
70297;SDS011;57702;44.420;20.298;2022-11-09T11:16:48;2.63;;;2.40;;
70297;SDS011;57702;44.420;20.298;2022-11-09T11:24:41;5.22;;;3.30;;
70297;SDS011;57702;44.420;20.298;2022-11-09T11:27:42;5.55;;;4.25;;
70297;SDS011;57702;44.420;20.298;2022-11-09T11:30:10;6.75;;;4.35;;
70297;SDS011;57702;44.420;20.298;2022-11-09T11:32:39;8.40;;;3.65;;
70297;SDS011;57702;44.420;20.298;2022-11-09T11:38:21;7.18;;;5.05;;
70297;SDS011;57702;44.420;20.298;2022-11-09T11:41:00;9.13;;;4.95;;
70297;SDS011;57702;44.420;20.298;2022-11-09T11:46:24;6.20;;;3.30;;
70297;SDS011;57702;44.420;20.298;2022-11-09T11:56:55;19.35;;;7.80;;
70297;SDS011;57702;44.420;20.298;2022-11-09T12:07:44;13.50;;;7.15;;
70297;SDS011;57702;44.420;20.298;2022-11-09T12:13:19;28.98;;;10.70;;
70297;SDS011;57702;44.420;20.298;2022-11-09T12:34:18;9.50;;;4.13;;
70297;SDS011;57702;44.420;20.298;2022-11-09T12:37:16;7.30;;;3.53;;
70297;SDS011;57702;44.420;20.298;2022-11-09T12:40:04;4.10;;;3.05;;
70297;SDS011;57702;44.420;20.298;2022-11-09T12:45:38;2.70;;;1.33;;
70297;SDS011;57702;44.420;20.298;2022-11-09T12:48:26;2.15;;;2.05;;
70297;SDS011;57702;44.420;20.298;2022-11-09T12:50:53;9.20;;;2.00;;
70297;SDS011;57702;44.420;20.298;2022-11-09T12:53:22;4.00;;;2.08;;
70297;SDS011;57702;44.420;20.298;2022-11-09T12:58:38;1.45;;;1.35;;
70297;SDS011;57702;44.420;20.298;2022-11-09T13:01:08;3.25;;;2.95;;
70297;SDS011;57702;44.420;20.298;2022-11-09T13:04:01;4.05;;;2.67;;
70297;SDS011;57702;44.420;20.298;2022-11-09T13:06:30;11.68;;;3.67;;
70297;SDS011;57702;44.420;20.298;2022-11-09T13:08:58;3.08;;;2.78;;
70297;SDS011;57702;44.420;20.298;2022-11-09T13:11:39;4.05;;;2.97;;
70297;SDS011;57702;44.420;20.298;2022-11-09T13:16:59;4.57;;;2.92;;
70297;SDS011;57702;44.420;20.298;2022-11-09T13:30:55;8.23;;;3.20;;
70297;SDS011;57702;44.420;20.298;2022-11-09T13:33:27;7.18;;;3.00;;
70297;SDS011;57702;44.420;20.298;2022-11-09T13:38:33;3.35;;;2.67;;
70297;SDS011;57702;44.420;20.298;2022-11-09T13:41:03;4.88;;;2.60;;
70297;SDS011;57702;44.420;20.298;2022-11-09T13:44:04;9.18;;;3.50;;
70297;SDS011;57702;44.420;20.298;2022-11-09T13:46:33;1.75;;;1.65;;
70297;SDS011;57702;44.420;20.298;2022-11-09T13:49:00;1.95;;;1.75;;
70297;SDS011;57702;44.420;20.298;2022-11-09T13:54:31;4.82;;;2.55;;
70297;SDS011;57702;44.420;20.298;2022-11-09T13:56:58;3.97;;;3.13;;
70297;SDS011;57702;44.420;20.298;2022-11-09T13:59:36;12.15;;;4.72;;
70297;SDS011;57702;44.420;20.298;2022-11-09T14:04:59;6.00;;;2.15;;
70297;SDS011;57702;44.420;20.298;2022-11-09T14:07:29;3.15;;;2.35;;
70297;SDS011;57702;44.420;20.298;2022-11-09T14:10:02;3.67;;;2.58;;
70297;SDS011;57702;44.420;20.298;2022-11-09T14:23:36;8.98;;;2.78;;
70297;SDS011;57702;44.420;20.298;2022-11-09T14:26:19;8.50;;;3.55;;
70297;SDS011;57702;44.420;20.298;2022-11-09T14:28:47;5.63;;;2.25;;
70297;SDS011;57702;44.420;20.298;2022-11-09T14:31:23;7.97;;;4.00;;
70297;SDS011;57702;44.420;20.298;2022-11-09T14:33:59;12.82;;;5.30;;
70297;SDS011;57702;44.420;20.298;2022-11-09T14:36:27;17.27;;;5.85;;
70297;SDS011;57702;44.420;20.298;2022-11-09T14:38:56;20.55;;;4.53;;
70297;SDS011;57702;44.420;20.298;2022-11-09T14:41:26;15.00;;;6.10;;
70297;SDS011;57702;44.420;20.298;2022-11-09T14:43:54;19.60;;;5.43;;
70297;SDS011;57702;44.420;20.298;2022-11-09T14:46:21;18.65;;;5.28;;
70297;SDS011;57702;44.420;20.298;2022-11-09T14:48:49;19.23;;;6.93;;
70297;SDS011;57702;44.420;20.298;2022-11-09T14:51:15;19.52;;;8.57;;
70297;SDS011;57702;44.420;20.298;2022-11-09T14:53:41;24.85;;;9.13;;
70297;SDS011;57702;44.420;20.298;2022-11-09T14:56:12;16.65;;;6.50;;
70297;SDS011;57702;44.420;20.298;2022-11-09T14:58:40;27.02;;;8.13;;
70297;SDS011;57702;44.420;20.298;2022-11-09T15:03:44;24.20;;;10.13;;
70297;SDS011;57702;44.420;20.298;2022-11-09T15:06:15;30.88;;;10.52;;
70297;SDS011;57702;44.420;20.298;2022-11-09T15:08:55;19.23;;;6.90;;
70297;SDS011;57702;44.420;20.298;2022-11-09T15:11:34;19.67;;;7.53;;
70297;SDS011;57702;44.420;20.298;2022-11-09T15:14:12;20.83;;;7.25;;
70297;SDS011;57702;44.420;20.298;2022-11-09T15:16:39;24.25;;;6.97;;
70297;SDS011;57702;44.420;20.298;2022-11-09T15:19:17;8.15;;;4.75;;
70297;SDS011;57702;44.420;20.298;2022-11-09T15:21:44;18.92;;;6.88;;
70297;SDS011;57702;44.420;20.298;2022-11-09T15:26:37;21.17;;;6.70;;
70297;SDS011;57702;44.420;20.298;2022-11-09T15:31:56;9.20;;;4.72;;
70297;SDS011;57702;44.420;20.298;2022-11-09T15:34:23;10.48;;;5.53;;
70297;SDS011;57702;44.420;20.298;2022-11-09T15:36:53;25.27;;;7.13;;
70297;SDS011;57702;44.420;20.298;2022-11-09T15:39:21;41.90;;;9.52;;
70297;SDS011;57702;44.420;20.298;2022-11-09T15:41:47;20.90;;;7.28;;
70297;SDS011;57702;44.420;20.298;2022-11-09T15:44:13;26.98;;;7.15;;
70297;SDS011;57702;44.420;20.298;2022-11-09T15:46:46;21.05;;;7.70;;
70297;SDS011;57702;44.420;20.298;2022-11-09T15:51:48;9.45;;;4.57;;
70297;SDS011;57702;44.420;20.298;2022-11-09T15:54:14;9.68;;;4.63;;
70297;SDS011;57702;44.420;20.298;2022-11-09T15:56:40;15.80;;;5.32;;
70297;SDS011;57702;44.420;20.298;2022-11-09T15:59:08;8.80;;;3.42;;
70297;SDS011;57702;44.420;20.298;2022-11-09T16:01:37;10.68;;;4.60;;
70297;SDS011;57702;44.420;20.298;2022-11-09T16:04:04;26.80;;;3.60;;
70297;SDS011;57702;44.420;20.298;2022-11-09T16:06:30;16.05;;;5.22;;
70297;SDS011;57702;44.420;20.298;2022-11-09T16:08:56;20.27;;;6.72;;
70297;SDS011;57702;44.420;20.298;2022-11-09T16:11:22;65.93;;;18.80;;
70297;SDS011;57702;44.420;20.298;2022-11-09T16:13:48;18.15;;;8.70;;
70297;SDS011;57702;44.420;20.298;2022-11-09T16:16:14;14.27;;;8.55;;
70297;SDS011;57702;44.420;20.298;2022-11-09T16:18:40;8.32;;;6.10;;
70297;SDS011;57702;44.420;20.298;2022-11-09T16:21:08;22.38;;;7.05;;
70297;SDS011;57702;44.420;20.298;2022-11-09T16:23:35;20.05;;;7.72;;
70297;SDS011;57702;44.420;20.298;2022-11-09T16:26:05;18.95;;;6.43;;
70297;SDS011;57702;44.420;20.298;2022-11-09T16:28:31;14.80;;;6.32;;
70297;SDS011;57702;44.420;20.298;2022-11-09T16:30:57;21.15;;;6.20;;
70297;SDS011;57702;44.420;20.298;2022-11-09T16:33:23;14.35;;;5.65;;
70297;SDS011;57702;44.420;20.298;2022-11-09T16:35:50;11.38;;;4.47;;
70297;SDS011;57702;44.420;20.298;2022-11-09T16:38:17;7.97;;;3.97;;
70297;SDS011;57702;44.420;20.298;2022-11-09T16:40:43;14.80;;;5.20;;
70297;SDS011;57702;44.420;20.298;2022-11-09T16:43:11;52.42;;;7.50;;
70297;SDS011;57702;44.420;20.298;2022-11-09T16:45:44;9.68;;;5.25;;
70297;SDS011;57702;44.420;20.298;2022-11-09T16:48:12;11.25;;;5.15;;
70297;SDS011;57702;44.420;20.298;2022-11-09T16:50:40;19.38;;;5.65;;
70297;SDS011;57702;44.420;20.298;2022-11-09T16:53:06;42.40;;;10.30;;
70297;SDS011;57702;44.420;20.298;2022-11-09T16:55:32;17.08;;;6.95;;